sensor_id;sensor_type;location;lat;lon;timestamp;pressure;altitude;pressure_sealevel;temperature;humidity
62524;BME280;53689;56.878;60.672;2023-12-07T00:00:36;99822.44;;;22.11;20.41
62524;BME280;53689;56.878;60.672;2023-12-07T00:03:04;99824.91;;;21.96;21.92
62524;BME280;53689;56.878;60.672;2023-12-07T00:05:32;99823.28;;;22.11;22.35
62524;BME280;53689;56.878;60.672;2023-12-07T00:08:01;99837.88;;;22.00;22.58
62524;BME280;53689;56.878;60.672;2023-12-07T00:10:30;99841.59;;;21.99;23.25
62524;BME280;53689;56.878;60.672;2023-12-07T00:12:58;99832.16;;;21.95;22.06
62524;BME280;53689;56.878;60.672;2023-12-07T00:15:25;99840.44;;;22.02;21.51
62524;BME280;53689;56.878;60.672;2023-12-07T00:17:53;99849.38;;;22.02;22.14
62524;BME280;53689;56.878;60.672;2023-12-07T00:20:21;99852.78;;;22.13;22.91
62524;BME280;53689;56.878;60.672;2023-12-07T00:22:49;99860.50;;;22.08;23.17
62524;BME280;53689;56.878;60.672;2023-12-07T00:25:18;99861.66;;;21.97;22.54
62524;BME280;53689;56.878;60.672;2023-12-07T00:27:46;99858.50;;;22.10;24.12
62524;BME280;53689;56.878;60.672;2023-12-07T00:30:15;99856.16;;;22.15;23.76
62524;BME280;53689;56.878;60.672;2023-12-07T00:32:43;99862.91;;;22.11;24.34
62524;BME280;53689;56.878;60.672;2023-12-07T00:35:11;99861.91;;;22.12;24.66
62524;BME280;53689;56.878;60.672;2023-12-07T00:37:40;99865.41;;;22.12;24.25
62524;BME280;53689;56.878;60.672;2023-12-07T00:40:08;99871.16;;;22.09;22.84
62524;BME280;53689;56.878;60.672;2023-12-07T00:42:37;99864.91;;;22.09;23.84
62524;BME280;53689;56.878;60.672;2023-12-07T00:45:06;99869.50;;;22.16;24.69
62524;BME280;53689;56.878;60.672;2023-12-07T00:47:34;99870.28;;;22.09;24.04
62524;BME280;53689;56.878;60.672;2023-12-07T00:50:02;99865.75;;;22.09;24.21
62524;BME280;53689;56.878;60.672;2023-12-07T00:52:30;99874.38;;;22.13;23.02
62524;BME280;53689;56.878;60.672;2023-12-07T00:54:58;99868.63;;;22.16;24.34
62524;BME280;53689;56.878;60.672;2023-12-07T00:57:40;99874.38;;;22.13;24.12
62524;BME280;53689;56.878;60.672;2023-12-07T01:00:09;99874.38;;;22.13;23.75
62524;BME280;53689;56.878;60.672;2023-12-07T01:02:37;99867.81;;;22.15;23.89
62524;BME280;53689;56.878;60.672;2023-12-07T01:05:06;99868.31;;;22.11;23.17
62524;BME280;53689;56.878;60.672;2023-12-07T01:07:34;99871.97;;;22.10;24.36
62524;BME280;53689;56.878;60.672;2023-12-07T01:10:02;99869.94;;;22.03;24.63
62524;BME280;53689;56.878;60.672;2023-12-07T01:12:30;99880.06;;;22.10;24.12
62524;BME280;53689;56.878;60.672;2023-12-07T01:14:59;99876.88;;;22.06;24.67
62524;BME280;53689;56.878;60.672;2023-12-07T01:17:28;99876.16;;;22.04;23.70
62524;BME280;53689;56.878;60.672;2023-12-07T01:19:56;99882.47;;;22.13;24.79
62524;BME280;53689;56.878;60.672;2023-12-07T01:22:25;99888.16;;;22.10;24.67
62524;BME280;53689;56.878;60.672;2023-12-07T01:24:54;99882.56;;;22.03;23.47
62524;BME280;53689;56.878;60.672;2023-12-07T01:27:22;99883.47;;;22.12;24.14
62524;BME280;53689;56.878;60.672;2023-12-07T01:29:50;99888.38;;;22.16;24.56
62524;BME280;53689;56.878;60.672;2023-12-07T01:32:20;99891.22;;;22.15;24.46
62524;BME280;53689;56.878;60.672;2023-12-07T01:34:49;99892.34;;;22.04;24.18
62524;BME280;53689;56.878;60.672;2023-12-07T01:37:18;99895.09;;;22.12;24.60
62524;BME280;53689;56.878;60.672;2023-12-07T01:39:46;99904.63;;;21.98;24.38
62524;BME280;53689;56.878;60.672;2023-12-07T01:42:14;99911.56;;;22.01;24.36
62524;BME280;53689;56.878;60.672;2023-12-07T01:44:41;99912.78;;;22.07;24.30
62524;BME280;53689;56.878;60.672;2023-12-07T01:47:09;99913.63;;;22.07;22.63
62524;BME280;53689;56.878;60.672;2023-12-07T01:49:39;99920.53;;;22.10;23.17
62524;BME280;53689;56.878;60.672;2023-12-07T01:52:09;99917.81;;;22.01;24.43
62524;BME280;53689;56.878;60.672;2023-12-07T01:54:38;99916.16;;;22.09;23.30
62524;BME280;53689;56.878;60.672;2023-12-07T01:57:06;99937.66;;;22.00;23.53
62524;BME280;53689;56.878;60.672;2023-12-07T01:59:34;99934.88;;;22.10;24.09
62524;BME280;53689;56.878;60.672;2023-12-07T02:02:02;99941.13;;;22.11;23.04
62524;BME280;53689;56.878;60.672;2023-12-07T02:04:30;99935.88;;;22.09;24.32
62524;BME280;53689;56.878;60.672;2023-12-07T02:07:00;99938.38;;;22.02;23.34
62524;BME280;53689;56.878;60.672;2023-12-07T02:09:29;99940.75;;;22.06;23.57
62524;BME280;53689;56.878;60.672;2023-12-07T02:11:57;99944.13;;;22.08;23.06
62524;BME280;53689;56.878;60.672;2023-12-07T02:14:25;99942.09;;;22.10;23.82
62524;BME280;53689;56.878;60.672;2023-12-07T02:16:56;99955.13;;;22.14;23.87
62524;BME280;53689;56.878;60.672;2023-12-07T02:19:47;99949.91;;;22.13;23.21
62524;BME280;53689;56.878;60.672;2023-12-07T02:22:23;99954.75;;;22.09;24.11
62524;BME280;53689;56.878;60.672;2023-12-07T02:25:04;99944.13;;;22.08;23.61
62524;BME280;53689;56.878;60.672;2023-12-07T02:27:35;99955.91;;;22.07;24.56
62524;BME280;53689;56.878;60.672;2023-12-07T02:30:05;99960.16;;;22.09;23.56
62524;BME280;53689;56.878;60.672;2023-12-07T02:32:33;99965.69;;;22.08;24.00
62524;BME280;53689;56.878;60.672;2023-12-07T02:35:01;99965.41;;;22.11;25.12
62524;BME280;53689;56.878;60.672;2023-12-07T02:37:33;99971.28;;;22.06;24.69
62524;BME280;53689;56.878;60.672;2023-12-07T02:40:04;99968.09;;;22.11;25.22
62524;BME280;53689;56.878;60.672;2023-12-07T02:42:35;99984.22;;;22.02;25.07
62524;BME280;53689;56.878;60.672;2023-12-07T02:45:05;99986.50;;;22.15;22.95
62524;BME280;53689;56.878;60.672;2023-12-07T02:47:34;99989.78;;;22.01;24.33
62524;BME280;53689;56.878;60.672;2023-12-07T02:50:02;99994.84;;;22.04;24.41
62524;BME280;53689;56.878;60.672;2023-12-07T02:52:31;99997.28;;;22.15;24.49
62524;BME280;53689;56.878;60.672;2023-12-07T02:55:00;99992.31;;;22.02;24.74
62524;BME280;53689;56.878;60.672;2023-12-07T02:57:28;99995.69;;;22.04;25.18
62524;BME280;53689;56.878;60.672;2023-12-07T02:59:58;99995.69;;;22.04;25.07
62524;BME280;53689;56.878;60.672;2023-12-07T03:02:25;100002.25;;;22.02;24.48
62524;BME280;53689;56.878;60.672;2023-12-07T03:04:54;99998.75;;;22.10;24.58
62524;BME280;53689;56.878;60.672;2023-12-07T03:07:22;100008.72;;;22.09;24.69
62524;BME280;53689;56.878;60.672;2023-12-07T03:09:50;100005.47;;;22.06;25.34
62524;BME280;53689;56.878;60.672;2023-12-07T03:12:18;100004.63;;;21.79;24.83
62524;BME280;53689;56.878;60.672;2023-12-07T03:14:46;100020.03;;;21.86;24.74
62524;BME280;53689;56.878;60.672;2023-12-07T03:17:16;100012.81;;;21.95;24.24
62524;BME280;53689;56.878;60.672;2023-12-07T03:19:44;100017.63;;;21.83;23.31
62524;BME280;53689;56.878;60.672;2023-12-07T03:22:12;100017.00;;;21.89;22.15
62524;BME280;53689;56.878;60.672;2023-12-07T03:24:44;100013.84;;;21.94;24.78
62524;BME280;53689;56.878;60.672;2023-12-07T03:27:13;100015.69;;;21.94;24.61
62524;BME280;53689;56.878;60.672;2023-12-07T03:29:41;100019.59;;;21.99;24.29
62524;BME280;53689;56.878;60.672;2023-12-07T03:32:09;100023.63;;;21.95;22.97
62524;BME280;53689;56.878;60.672;2023-12-07T03:34:38;100025.03;;;22.08;24.24
62524;BME280;53689;56.878;60.672;2023-12-07T03:37:06;100030.69;;;21.96;23.74
62524;BME280;53689;56.878;60.672;2023-12-07T03:39:34;100028.22;;;22.03;23.15
62524;BME280;53689;56.878;60.672;2023-12-07T03:42:02;100029.91;;;22.04;24.82
62524;BME280;53689;56.878;60.672;2023-12-07T03:44:30;100031.44;;;22.07;24.41
62524;BME280;53689;56.878;60.672;2023-12-07T03:46:58;100028.41;;;22.10;24.21
62524;BME280;53689;56.878;60.672;2023-12-07T03:49:26;100024.03;;;22.09;24.14
62524;BME280;53689;56.878;60.672;2023-12-07T03:51:56;100029.06;;;22.03;24.08
62524;BME280;53689;56.878;60.672;2023-12-07T03:54:24;100029.13;;;22.12;24.14
62524;BME280;53689;56.878;60.672;2023-12-07T03:56:51;100037.03;;;22.13;24.50
62524;BME280;53689;56.878;60.672;2023-12-07T03:59:19;100038.84;;;22.04;23.96
62524;BME280;53689;56.878;60.672;2023-12-07T04:01:47;100043.97;;;22.16;23.98
62524;BME280;53689;56.878;60.672;2023-12-07T04:04:15;100048.25;;;22.00;23.13
62524;BME280;53689;56.878;60.672;2023-12-07T04:06:44;100043.91;;;22.08;24.50
62524;BME280;53689;56.878;60.672;2023-12-07T04:09:13;100056.56;;;22.07;23.18
62524;BME280;53689;56.878;60.672;2023-12-07T04:11:40;100049.63;;;22.04;24.12
62524;BME280;53689;56.878;60.672;2023-12-07T04:14:09;100054.28;;;21.94;23.27
62524;BME280;53689;56.878;60.672;2023-12-07T04:16:36;100060.28;;;22.06;22.94
62524;BME280;53689;56.878;60.672;2023-12-07T04:19:04;100067.91;;;22.11;22.52
62524;BME280;53689;56.878;60.672;2023-12-07T04:21:32;100072.97;;;22.14;23.34
62524;BME280;53689;56.878;60.672;2023-12-07T04:24:01;100068.38;;;22.06;22.58
62524;BME280;53689;56.878;60.672;2023-12-07T04:26:30;100071.34;;;22.21;23.17
62524;BME280;53689;56.878;60.672;2023-12-07T04:28:59;100070.28;;;22.14;22.58
62524;BME280;53689;56.878;60.672;2023-12-07T04:31:26;100069.88;;;22.09;23.45
62524;BME280;53689;56.878;60.672;2023-12-07T04:33:55;100074.75;;;22.05;21.25
62524;BME280;53689;56.878;60.672;2023-12-07T04:36:23;100065.50;;;22.08;23.48
62524;BME280;53689;56.878;60.672;2023-12-07T04:38:51;100073.91;;;22.04;23.15
62524;BME280;53689;56.878;60.672;2023-12-07T04:41:19;100084.78;;;22.13;23.45
62524;BME280;53689;56.878;60.672;2023-12-07T04:43:49;100081.22;;;22.12;22.76
62524;BME280;53689;56.878;60.672;2023-12-07T04:46:17;100075.66;;;22.14;22.53
62524;BME280;53689;56.878;60.672;2023-12-07T04:48:45;100082.69;;;22.07;21.96
62524;BME280;53689;56.878;60.672;2023-12-07T04:51:14;100079.16;;;22.06;21.47
62524;BME280;53689;56.878;60.672;2023-12-07T04:53:42;100082.09;;;21.95;18.07
62524;BME280;53689;56.878;60.672;2023-12-07T04:56:10;100079.78;;;22.00;21.77
62524;BME280;53689;56.878;60.672;2023-12-07T04:58:38;100084.16;;;22.01;22.56
62524;BME280;53689;56.878;60.672;2023-12-07T05:01:07;100085.09;;;21.92;19.92
62524;BME280;53689;56.878;60.672;2023-12-07T05:03:35;100080.69;;;22.09;21.03
62524;BME280;53689;56.878;60.672;2023-12-07T05:06:04;100088.69;;;22.00;22.94
62524;BME280;53689;56.878;60.672;2023-12-07T05:08:32;100083.47;;;21.99;22.54
62524;BME280;53689;56.878;60.672;2023-12-07T05:11:00;100089.50;;;21.93;20.53
62524;BME280;53689;56.878;60.672;2023-12-07T05:13:28;100093.81;;;22.03;22.81
62524;BME280;53689;56.878;60.672;2023-12-07T05:15:56;100100.19;;;22.02;22.66
62524;BME280;53689;56.878;60.672;2023-12-07T05:18:25;100103.25;;;22.08;22.91
62524;BME280;53689;56.878;60.672;2023-12-07T05:20:54;100105.13;;;22.07;23.82
62524;BME280;53689;56.878;60.672;2023-12-07T05:23:22;100119.44;;;22.08;23.71
62524;BME280;53689;56.878;60.672;2023-12-07T05:25:50;100118.53;;;21.81;21.92
62524;BME280;53689;56.878;60.672;2023-12-07T05:28:18;100116.63;;;21.73;20.67
62524;BME280;53689;56.878;60.672;2023-12-07T05:30:46;100121.63;;;21.86;17.64
62524;BME280;53689;56.878;60.672;2023-12-07T05:33:14;100139.44;;;21.97;21.59
62524;BME280;53689;56.878;60.672;2023-12-07T05:35:44;100135.34;;;21.74;17.96
62524;BME280;53689;56.878;60.672;2023-12-07T05:38:11;100133.94;;;21.70;16.83
62524;BME280;53689;56.878;60.672;2023-12-07T05:40:39;100144.16;;;21.67;16.97
62524;BME280;53689;56.878;60.672;2023-12-07T05:43:07;100135.00;;;21.59;18.09
62524;BME280;53689;56.878;60.672;2023-12-07T05:45:35;100145.06;;;21.57;19.06
62524;BME280;53689;56.878;60.672;2023-12-07T05:48:04;100145.94;;;21.76;18.95
62524;BME280;53689;56.878;60.672;2023-12-07T05:50:32;100145.50;;;21.81;21.47
62524;BME280;53689;56.878;60.672;2023-12-07T05:53:01;100148.03;;;21.82;19.46
62524;BME280;53689;56.878;60.672;2023-12-07T05:55:29;100155.75;;;21.77;18.87
62524;BME280;53689;56.878;60.672;2023-12-07T05:57:57;100152.41;;;21.65;16.78
62524;BME280;53689;56.878;60.672;2023-12-07T06:00:25;100151.53;;;21.74;18.73
62524;BME280;53689;56.878;60.672;2023-12-07T06:02:53;100157.59;;;21.76;19.39
62524;BME280;53689;56.878;60.672;2023-12-07T06:05:21;100152.69;;;21.62;17.00
62524;BME280;53689;56.878;60.672;2023-12-07T06:07:49;100156.38;;;21.61;18.57
62524;BME280;53689;56.878;60.672;2023-12-07T06:10:19;100153.00;;;21.59;18.01
62524;BME280;53689;56.878;60.672;2023-12-07T06:12:47;100161.22;;;21.57;16.83
62524;BME280;53689;56.878;60.672;2023-12-07T06:15:14;100159.63;;;21.46;17.38
62524;BME280;53689;56.878;60.672;2023-12-07T06:17:42;100164.03;;;21.38;17.42
62524;BME280;53689;56.878;60.672;2023-12-07T06:20:11;100165.00;;;21.46;19.11
62524;BME280;53689;56.878;60.672;2023-12-07T06:22:39;100177.16;;;21.51;17.01
62524;BME280;53689;56.878;60.672;2023-12-07T06:25:07;100180.63;;;21.43;17.59
62524;BME280;53689;56.878;60.672;2023-12-07T06:27:37;100186.69;;;21.45;17.77
62524;BME280;53689;56.878;60.672;2023-12-07T06:30:05;100182.00;;;21.47;17.09
62524;BME280;53689;56.878;60.672;2023-12-07T06:32:33;100184.56;;;21.48;16.54
62524;BME280;53689;56.878;60.672;2023-12-07T06:35:03;100188.25;;;21.47;16.36
62524;BME280;53689;56.878;60.672;2023-12-07T06:37:31;100192.31;;;21.52;21.51
62524;BME280;53689;56.878;60.672;2023-12-07T06:39:59;100182.72;;;21.95;21.68
62524;BME280;53689;56.878;60.672;2023-12-07T06:42:29;100178.66;;;21.91;21.42
62524;BME280;53689;56.878;60.672;2023-12-07T06:44:59;100188.19;;;22.03;20.99
62524;BME280;53689;56.878;60.672;2023-12-07T06:47:27;100195.97;;;22.07;21.49
62524;BME280;53689;56.878;60.672;2023-12-07T06:49:55;100208.22;;;22.01;21.67
62524;BME280;53689;56.878;60.672;2023-12-07T06:52:23;100207.91;;;21.86;20.50
62524;BME280;53689;56.878;60.672;2023-12-07T06:54:51;100212.53;;;21.94;21.65
62524;BME280;53689;56.878;60.672;2023-12-07T06:57:20;100198.00;;;21.86;18.06
62524;BME280;53689;56.878;60.672;2023-12-07T06:59:49;100200.31;;;21.71;18.35
62524;BME280;53689;56.878;60.672;2023-12-07T07:02:18;100208.03;;;21.56;17.57
62524;BME280;53689;56.878;60.672;2023-12-07T07:04:46;100200.69;;;21.58;18.83
62524;BME280;53689;56.878;60.672;2023-12-07T07:07:14;100213.44;;;21.56;16.32
62524;BME280;53689;56.878;60.672;2023-12-07T07:09:42;100206.34;;;21.55;18.15
62524;BME280;53689;56.878;60.672;2023-12-07T07:12:11;100200.19;;;21.45;17.31
62524;BME280;53689;56.878;60.672;2023-12-07T07:14:38;100217.38;;;21.62;18.41
62524;BME280;53689;56.878;60.672;2023-12-07T07:17:06;100215.69;;;21.61;20.37
62524;BME280;53689;56.878;60.672;2023-12-07T07:19:36;100220.38;;;21.59;20.08
62524;BME280;53689;56.878;60.672;2023-12-07T07:22:04;100217.69;;;21.59;18.70
62524;BME280;53689;56.878;60.672;2023-12-07T07:24:32;100215.84;;;21.59;17.63
62524;BME280;53689;56.878;60.672;2023-12-07T07:27:00;100218.00;;;21.56;16.21
62524;BME280;53689;56.878;60.672;2023-12-07T07:29:28;100220.50;;;21.67;16.01
62524;BME280;53689;56.878;60.672;2023-12-07T07:31:57;100224.19;;;21.66;19.05
62524;BME280;53689;56.878;60.672;2023-12-07T07:34:25;100217.69;;;21.69;19.60
62524;BME280;53689;56.878;60.672;2023-12-07T07:36:54;100218.91;;;21.74;21.61
62524;BME280;53689;56.878;60.672;2023-12-07T07:39:23;100215.97;;;21.68;19.30
62524;BME280;53689;56.878;60.672;2023-12-07T07:41:51;100222.44;;;21.75;18.99
62524;BME280;53689;56.878;60.672;2023-12-07T07:44:19;100215.53;;;21.72;20.24
62524;BME280;53689;56.878;60.672;2023-12-07T07:46:46;100224.19;;;21.66;17.23
62524;BME280;53689;56.878;60.672;2023-12-07T07:49:14;100224.09;;;21.58;19.33
62524;BME280;53689;56.878;60.672;2023-12-07T07:51:42;100229.38;;;21.49;17.06
62524;BME280;53689;56.878;60.672;2023-12-07T07:54:12;100223.66;;;21.53;18.53
62524;BME280;53689;56.878;60.672;2023-12-07T07:56:40;100228.97;;;21.44;22.80
62524;BME280;53689;56.878;60.672;2023-12-07T07:59:10;100228.47;;;21.59;17.87
62524;BME280;53689;56.878;60.672;2023-12-07T08:01:38;100224.31;;;21.74;18.47
62524;BME280;53689;56.878;60.672;2023-12-07T08:04:07;100239.22;;;21.97;21.55
62524;BME280;53689;56.878;60.672;2023-12-07T08:06:35;100229.16;;;21.71;21.47
62524;BME280;53689;56.878;60.672;2023-12-07T08:09:04;100227.25;;;21.81;20.69
62524;BME280;53689;56.878;60.672;2023-12-07T08:11:34;100225.47;;;21.62;17.37
62524;BME280;53689;56.878;60.672;2023-12-07T08:14:02;100234.41;;;21.72;20.51
62524;BME280;53689;56.878;60.672;2023-12-07T08:16:30;100239.03;;;21.80;21.32
62524;BME280;53689;56.878;60.672;2023-12-07T08:19:00;100229.28;;;21.69;16.32
62524;BME280;53689;56.878;60.672;2023-12-07T08:21:28;100227.09;;;21.55;16.25
62524;BME280;53689;56.878;60.672;2023-12-07T08:23:57;100221.06;;;21.61;17.38
62524;BME280;53689;56.878;60.672;2023-12-07T08:26:25;100226.31;;;21.62;17.04
62524;BME280;53689;56.878;60.672;2023-12-07T08:28:55;100223.00;;;21.79;18.40
62524;BME280;53689;56.878;60.672;2023-12-07T08:31:22;100230.94;;;21.80;17.90
62524;BME280;53689;56.878;60.672;2023-12-07T08:33:51;100227.88;;;21.65;15.85
62524;BME280;53689;56.878;60.672;2023-12-07T08:36:20;100238.06;;;21.71;18.18
62524;BME280;53689;56.878;60.672;2023-12-07T08:38:48;100239.78;;;21.72;18.87
62524;BME280;53689;56.878;60.672;2023-12-07T08:41:16;100233.69;;;21.70;16.82
62524;BME280;53689;56.878;60.672;2023-12-07T08:43:44;100237.41;;;21.59;16.73
62524;BME280;53689;56.878;60.672;2023-12-07T08:46:14;100248.34;;;21.68;15.78
62524;BME280;53689;56.878;60.672;2023-12-07T08:48:42;100251.22;;;21.46;19.81
62524;BME280;53689;56.878;60.672;2023-12-07T08:51:10;100249.53;;;21.45;17.50
62524;BME280;53689;56.878;60.672;2023-12-07T08:53:38;100244.41;;;21.52;18.52
62524;BME280;53689;56.878;60.672;2023-12-07T08:56:07;100242.94;;;21.58;18.71
62524;BME280;53689;56.878;60.672;2023-12-07T08:58:35;100250.47;;;21.54;16.85
62524;BME280;53689;56.878;60.672;2023-12-07T09:01:03;100257.44;;;21.57;16.55
62524;BME280;53689;56.878;60.672;2023-12-07T09:03:37;100251.06;;;21.10;18.87
62524;BME280;53689;56.878;60.672;2023-12-07T09:06:05;100256.06;;;21.43;18.37
62524;BME280;53689;56.878;60.672;2023-12-07T09:08:34;100261.59;;;21.41;17.54
62524;BME280;53689;56.878;60.672;2023-12-07T09:11:02;100260.22;;;21.37;19.01
62524;BME280;53689;56.878;60.672;2023-12-07T09:13:30;100256.63;;;21.46;18.18
62524;BME280;53689;56.878;60.672;2023-12-07T09:15:59;100266.75;;;21.72;20.10
62524;BME280;53689;56.878;60.672;2023-12-07T09:18:26;100260.38;;;21.63;18.54
62524;BME280;53689;56.878;60.672;2023-12-07T09:20:56;100266.19;;;21.59;19.35
62524;BME280;53689;56.878;60.672;2023-12-07T09:23:24;100258.72;;;21.81;19.42
62524;BME280;53689;56.878;60.672;2023-12-07T09:25:51;100249.41;;;21.75;20.30
62524;BME280;53689;56.878;60.672;2023-12-07T09:28:19;100263.34;;;21.70;19.16
62524;BME280;53689;56.878;60.672;2023-12-07T09:30:47;100256.75;;;21.83;19.67
62524;BME280;53689;56.878;60.672;2023-12-07T09:33:15;100270.59;;;21.70;19.70
62524;BME280;53689;56.878;60.672;2023-12-07T09:35:45;100276.63;;;21.82;19.48
62524;BME280;53689;56.878;60.672;2023-12-07T09:38:15;100273.94;;;21.82;20.43
62524;BME280;53689;56.878;60.672;2023-12-07T09:40:43;100283.06;;;21.99;21.47
62524;BME280;53689;56.878;60.672;2023-12-07T09:43:11;100282.44;;;22.05;20.82
62524;BME280;53689;56.878;60.672;2023-12-07T09:45:39;100288.34;;;21.90;20.62
62524;BME280;53689;56.878;60.672;2023-12-07T09:48:08;100276.81;;;21.98;21.06
62524;BME280;53689;56.878;60.672;2023-12-07T09:50:36;100282.97;;;21.90;17.92
62524;BME280;53689;56.878;60.672;2023-12-07T09:53:04;100288.28;;;22.00;19.21
62524;BME280;53689;56.878;60.672;2023-12-07T09:55:37;100284.59;;;22.01;19.78
62524;BME280;53689;56.878;60.672;2023-12-07T09:58:06;100287.34;;;21.92;18.60
62524;BME280;53689;56.878;60.672;2023-12-07T10:00:35;100294.41;;;22.02;20.28
62524;BME280;53689;56.878;60.672;2023-12-07T10:03:04;100296.91;;;22.04;19.13
62524;BME280;53689;56.878;60.672;2023-12-07T10:05:32;100297.88;;;22.13;20.48
62524;BME280;53689;56.878;60.672;2023-12-07T10:08:00;100296.47;;;22.09;21.01
62524;BME280;53689;56.878;60.672;2023-12-07T10:10:28;100303.28;;;22.13;20.64
62524;BME280;53689;56.878;60.672;2023-12-07T10:12:59;100303.38;;;22.21;20.50
62524;BME280;53689;56.878;60.672;2023-12-07T10:15:27;100307.06;;;22.20;20.64
62524;BME280;53689;56.878;60.672;2023-12-07T10:17:56;100307.97;;;22.11;20.00
62524;BME280;53689;56.878;60.672;2023-12-07T10:20:25;100309.56;;;22.03;20.47
62524;BME280;53689;56.878;60.672;2023-12-07T10:23:04;100313.41;;;22.01;18.68
62524;BME280;53689;56.878;60.672;2023-12-07T10:25:35;100304.56;;;22.09;20.48
62524;BME280;53689;56.878;60.672;2023-12-07T10:28:05;100305.53;;;21.89;19.98
62524;BME280;53689;56.878;60.672;2023-12-07T10:30:33;100313.84;;;21.78;22.38
62524;BME280;53689;56.878;60.672;2023-12-07T10:33:03;100318.56;;;21.94;21.94
62524;BME280;53689;56.878;60.672;2023-12-07T10:35:31;100314.88;;;21.95;24.58
62524;BME280;53689;56.878;60.672;2023-12-07T10:37:59;100303.78;;;21.98;22.25
62524;BME280;53689;56.878;60.672;2023-12-07T10:40:27;100306.31;;;22.00;20.25
62524;BME280;53689;56.878;60.672;2023-12-07T10:42:57;100310.78;;;21.91;21.59
62524;BME280;53689;56.878;60.672;2023-12-07T10:45:29;100315.75;;;22.14;21.80
62524;BME280;53689;56.878;60.672;2023-12-07T10:48:02;100319.66;;;22.01;21.75
62524;BME280;53689;56.878;60.672;2023-12-07T10:50:32;100319.66;;;22.01;21.86
62524;BME280;53689;56.878;60.672;2023-12-07T10:53:06;100314.59;;;22.16;21.87
62524;BME280;53689;56.878;60.672;2023-12-07T10:55:50;100321.16;;;22.14;21.40
62524;BME280;53689;56.878;60.672;2023-12-07T10:58:21;100318.31;;;22.15;21.92
62524;BME280;53689;56.878;60.672;2023-12-07T11:00:52;100319.34;;;22.04;22.75
62524;BME280;53689;56.878;60.672;2023-12-07T11:03:21;100319.16;;;21.88;22.73
62524;BME280;53689;56.878;60.672;2023-12-07T11:05:49;100324.34;;;21.71;19.65
62524;BME280;53689;56.878;60.672;2023-12-07T11:08:24;100332.63;;;21.88;22.66
62524;BME280;53689;56.878;60.672;2023-12-07T11:11:07;100336.41;;;21.77;17.47
62524;BME280;53689;56.878;60.672;2023-12-07T11:13:38;100328.94;;;21.89;19.25
62524;BME280;53689;56.878;60.672;2023-12-07T11:16:09;100331.84;;;22.06;21.84
62524;BME280;53689;56.878;60.672;2023-12-07T11:18:37;100338.13;;;21.96;19.68
62524;BME280;53689;56.878;60.672;2023-12-07T11:21:06;100339.84;;;21.97;21.68
62524;BME280;53689;56.878;60.672;2023-12-07T11:23:36;100346.81;;;21.90;19.93
62524;BME280;53689;56.878;60.672;2023-12-07T11:26:04;100342.22;;;22.00;20.36
62524;BME280;53689;56.878;60.672;2023-12-07T11:28:35;100339.78;;;22.07;21.43
62524;BME280;53689;56.878;60.672;2023-12-07T11:31:07;100341.31;;;22.10;22.80
62524;BME280;53689;56.878;60.672;2023-12-07T11:33:38;100330.69;;;22.08;20.96
62524;BME280;53689;56.878;60.672;2023-12-07T11:36:07;100333.22;;;22.10;21.26
62524;BME280;53689;56.878;60.672;2023-12-07T11:38:35;100346.72;;;22.10;20.38
62524;BME280;53689;56.878;60.672;2023-12-07T11:41:04;100336.56;;;22.03;22.69
62524;BME280;53689;56.878;60.672;2023-12-07T11:43:41;100336.88;;;22.18;21.85
62524;BME280;53689;56.878;60.672;2023-12-07T11:46:11;100338.72;;;22.18;22.98
62524;BME280;53689;56.878;60.672;2023-12-07T11:48:39;100347.44;;;22.12;22.53
62524;BME280;53689;56.878;60.672;2023-12-07T11:51:07;100338.44;;;21.93;20.02
62524;BME280;53689;56.878;60.672;2023-12-07T11:53:36;100343.78;;;22.03;20.30
62524;BME280;53689;56.878;60.672;2023-12-07T11:56:06;100344.03;;;21.82;21.75
62524;BME280;53689;56.878;60.672;2023-12-07T11:58:35;100338.38;;;22.03;22.56
62524;BME280;53689;56.878;60.672;2023-12-07T12:01:07;100345.84;;;21.91;23.44
62524;BME280;53689;56.878;60.672;2023-12-07T12:03:38;100339.78;;;22.07;22.28
62524;BME280;53689;56.878;60.672;2023-12-07T12:06:07;100344.91;;;22.00;20.64
62524;BME280;53689;56.878;60.672;2023-12-07T12:08:36;100331.81;;;21.87;21.62
62524;BME280;53689;56.878;60.672;2023-12-07T12:11:04;100329.75;;;21.99;22.75
62524;BME280;53689;56.878;60.672;2023-12-07T12:13:34;100332.75;;;21.96;20.94
62524;BME280;53689;56.878;60.672;2023-12-07T12:16:04;100336.94;;;22.09;22.30
62524;BME280;53689;56.878;60.672;2023-12-07T12:18:34;100350.31;;;22.00;20.88
62524;BME280;53689;56.878;60.672;2023-12-07T12:21:07;100338.84;;;21.98;21.47
62524;BME280;53689;56.878;60.672;2023-12-07T12:23:35;100345.44;;;21.86;20.18
62524;BME280;53689;56.878;60.672;2023-12-07T12:26:03;100357.00;;;21.96;22.20
62524;BME280;53689;56.878;60.672;2023-12-07T12:28:31;100356.00;;;21.97;22.71
62524;BME280;53689;56.878;60.672;2023-12-07T12:31:00;100351.31;;;21.99;21.79
62524;BME280;53689;56.878;60.672;2023-12-07T12:33:29;100356.81;;;22.08;22.72
62524;BME280;53689;56.878;60.672;2023-12-07T12:36:04;100356.00;;;21.97;22.09
62524;BME280;53689;56.878;60.672;2023-12-07T12:38:33;100354.44;;;22.04;21.43
62524;BME280;53689;56.878;60.672;2023-12-07T12:41:10;100349.72;;;22.07;22.40
62524;BME280;53689;56.878;60.672;2023-12-07T12:43:39;100358.13;;;22.03;22.03
62524;BME280;53689;56.878;60.672;2023-12-07T12:46:08;100354.00;;;21.99;22.02
62524;BME280;53689;56.878;60.672;2023-12-07T12:48:35;100359.81;;;22.04;20.88
62524;BME280;53689;56.878;60.672;2023-12-07T12:51:14;100349.59;;;22.08;21.61